Time;durP1;ratioP1;P1;durP2;ratioP2;P2;SDS_P1;SDS_P2;PMS_P1;PMS_P2;Temp;Humidity;BMP_temperature;BMP_pressure;BME280_temperature;BME280_humidity;BME280_pressure;Samples;Min_cycle;Max_cycle;Signal;HPM_P1;HPM_P2
2022/04/29 00:01:56;;;;;;;;;;;;;;;14.00;59.96;100650.37;4396319;32;19966;-92
2022/04/29 00:04:22;;;;;;;;;;;;;;;13.61;59.94;100657.69;4396155;32;20001;-92
2022/04/29 00:06:48;;;;;;;;;;;;;;;13.82;59.96;100652.66;4395981;32;19990;-92
2022/04/29 00:09:13;;;;;;;;;;;;;;;13.83;59.95;100649.16;4396189;32;20542;-92
2022/04/29 00:11:38;;;;;;;;;;;;;;;13.93;59.96;100647.09;4383839;32;19982;-93
2022/04/29 00:14:04;;;;;;;;;;;;;;;13.87;59.96;100655.13;4397168;32;20326;-94
2022/04/29 00:16:29;;;;;;;;;;;;;;;13.74;59.95;100653.81;4396970;32;20299;-93
2022/04/29 00:18:54;;;;;;;;;;;;;;;13.69;59.94;100661.78;4396893;32;20001;-94
2022/04/29 00:21:19;;;;;;;;;;;;;;;13.68;59.95;100656.59;4396340;32;20038;-93
2022/04/29 00:23:45;;;;;;;;;;;;;;;13.46;59.93;100653.75;4396767;32;19998;-93
2022/04/29 00:26:10;;;;;;;;;;;;;;;13.52;59.94;100658.84;4396898;32;19974;-92
2022/04/29 00:28:35;;;;;;;;;;;;;;;13.58;59.95;100652.56;4396639;32;20357;-93
2022/04/29 00:31:00;;;;;;;;;;;;;;;13.65;59.95;100649.69;4396171;32;19990;-93
2022/04/29 00:33:27;;;;;;;;;;;;;;;13.63;59.94;100646.28;4396678;32;20006;-93
2022/04/29 00:35:52;;;;;;;;;;;;;;;13.54;59.93;100653.56;4396905;32;20349;-93
2022/04/29 00:38:18;;;;;;;;;;;;;;;13.50;59.94;100651.03;4395617;32;19998;-89
2022/04/29 00:40:44;;;;;;;;;;;;;;;13.56;59.93;100655.22;4409144;32;20121;-88
2022/04/29 00:43:11;;;;;;;;;;;;;;;13.52;59.94;100651.00;4395681;32;20146;-88
2022/04/29 00:45:36;;;;;;;;;;;;;;;13.50;59.94;100648.44;4395417;32;19982;-89
2022/04/29 00:48:01;;;;;;;;;;;;;;;13.89;59.96;100647.22;4395522;32;19970;-89
2022/04/29 00:50:27;;;;;;;;;;;;;;;13.87;59.96;100644.66;4395556;32;19986;-88
2022/04/29 00:52:53;;;;;;;;;;;;;;;13.65;59.95;100644.47;4395345;32;20047;-89
2022/04/29 00:55:18;;;;;;;;;;;;;;;13.80;59.95;100646.63;4395484;32;19993;-88
2022/04/29 00:57:55;;;;;;;;;;;;;;;13.55;59.93;100650.03;4395254;32;20020;-88
2022/04/29 01:00:21;;;;;;;;;;;;;;;13.36;59.93;100647.97;4395527;32;20006;-88
2022/04/29 01:02:47;;;;;;;;;;;;;;;13.36;59.93;100645.34;4395455;32;20005;-88
2022/04/29 01:05:13;;;;;;;;;;;;;;;13.44;59.93;100655.56;4409289;32;19974;-88
2022/04/29 01:07:39;;;;;;;;;;;;;;;13.18;59.92;100657.19;4395313;32;20326;-89
2022/04/29 01:10:05;;;;;;;;;;;;;;;13.20;59.92;100652.75;4395181;32;19990;-88
2022/04/29 01:12:31;;;;;;;;;;;;;;;13.20;59.92;100650.16;4382857;32;20009;-89
2022/04/29 01:14:58;;;;;;;;;;;;;;;13.36;59.93;100652.34;4395341;32;19970;-89
2022/04/29 01:17:23;;;;;;;;;;;;;;;12.94;59.90;100651.75;4395337;32;20046;-89
2022/04/29 01:19:48;;;;;;;;;;;;;;;12.83;59.90;100647.69;4395086;32;20002;-89
2022/04/29 01:22:13;;;;;;;;;;;;;;;12.83;59.90;100641.59;4395266;32;20038;-88
2022/04/29 01:24:39;;;;;;;;;;;;;;;12.83;59.89;100644.22;4395224;32;20294;-88
2022/04/29 01:27:10;;;;;;;;;;;;;;;12.82;59.90;100639.88;4395248;32;20014;-89
2022/04/29 01:29:42;;;;;;;;;;;;;;;12.69;59.89;100644.56;4409075;32;19998;-89
2022/04/29 01:32:08;;;;;;;;;;;;;;;12.63;59.89;100641.25;4395185;32;20365;-88
2022/04/29 01:34:33;;;;;;;;;;;;;;;12.55;59.88;100637.09;4395266;32;19989;-90
2022/04/29 01:36:58;;;;;;;;;;;;;;;12.62;59.89;100634.31;4394705;32;22729;-89
2022/04/29 01:39:24;;;;;;;;;;;;;;;12.48;59.88;100642.50;4395139;32;20037;-89
2022/04/29 01:41:49;;;;;;;;;;;;;;;12.37;59.88;100639.31;4382566;32;20010;-90
2022/04/29 01:44:14;;;;;;;;;;;;;;;12.44;59.88;100633.03;4395241;32;19974;-91
2022/04/29 01:46:39;;;;;;;;;;;;;;;12.28;59.87;100643.84;4394787;32;20279;-90
2022/04/29 01:49:05;;;;;;;;;;;;;;;12.39;59.87;100638.38;4394891;32;20009;-89
2022/04/29 01:51:30;;;;;;;;;;;;;;;12.35;59.88;100639.38;4395088;32;20016;-90
2022/04/29 01:53:55;;;;;;;;;;;;;;;12.46;59.88;100632.09;4381514;32;19982;-90
2022/04/29 01:56:32;;;;;;;;;;;;;;;12.28;59.86;100637.78;4394540;32;23937;-90
2022/04/29 01:58:57;;;;;;;;;;;;;;;12.30;59.87;100630.75;4395846;32;20350;-89
2022/04/29 02:01:23;;;;;;;;;;;;;;;12.21;59.87;100633.63;4394444;32;21555;-91
2022/04/29 02:03:48;;;;;;;;;;;;;;;12.07;59.86;100638.31;4394917;32;19989;-91
2022/04/29 02:06:14;;;;;;;;;;;;;;;12.13;59.86;100630.34;4394683;32;20032;-90
2022/04/29 02:08:39;;;;;;;;;;;;;;;11.95;59.85;100639.47;4394777;32;20275;-89
2022/04/29 02:11:05;;;;;;;;;;;;;;;11.94;59.85;100638.59;4382123;32;20032;-91
2022/04/29 02:13:31;;;;;;;;;;;;;;;11.95;59.85;100639.47;4395061;32;19974;-90
2022/04/29 02:15:57;;;;;;;;;;;;;;;11.86;59.85;100640.53;4394740;32;20329;-90
2022/04/29 02:18:22;;;;;;;;;;;;;;;11.94;59.84;100638.59;4394896;32;19986;-89
2022/04/29 02:20:49;;;;;;;;;;;;;;;11.88;59.84;100636.16;4394647;32;19990;-92
2022/04/29 02:23:14;;;;;;;;;;;;;;;11.80;59.83;100632.84;4395100;32;20026;-92
2022/04/29 02:25:40;;;;;;;;;;;;;;;11.92;59.85;100629.97;4394761;32;20332;-92
2022/04/29 02:28:05;;;;;;;;;;;;;;;11.76;59.84;100640.75;4394806;32;20247;-92
2022/04/29 02:30:30;;;;;;;;;;;;;;;11.89;59.84;100629.19;4394875;32;19982;-92
2022/04/29 02:32:56;;;;;;;;;;;;;;;12.03;59.85;100634.91;4394674;32;20314;-91
2022/04/29 02:35:21;;;;;;;;;;;;;;;12.00;59.85;100637.59;4394909;32;20028;-92
2022/04/29 02:37:46;;;;;;;;;;;;;;;11.94;59.84;100638.59;4394205;32;21069;-91
2022/04/29 02:40:11;;;;;;;;;;;;;;;11.90;59.85;100642.19;4394479;32;20265;-91
2022/04/29 02:42:37;;;;;;;;;;;;;;;11.84;59.85;100637.13;4394303;32;19982;-90
2022/04/29 02:45:02;;;;;;;;;;;;;;;11.91;59.85;100638.69;4394546;32;20016;-90
2022/04/29 02:47:28;;;;;;;;;;;;;;;11.78;59.84;100634.63;4394032;32;20024;-90
2022/04/29 02:49:53;;;;;;;;;;;;;;;11.62;59.83;100636.72;4408252;32;19982;-91
2022/04/29 02:52:18;;;;;;;;;;;;;;;11.68;59.83;100630.50;4394042;32;20016;-90
2022/04/29 02:54:43;;;;;;;;;;;;;;;11.47;59.83;100631.81;4394335;32;19988;-90
2022/04/29 02:57:08;;;;;;;;;;;;;;;11.46;59.83;100642.28;4394093;32;19990;-91
2022/04/29 02:59:34;;;;;;;;;;;;;;;11.54;59.83;100630.78;4381622;32;20034;-88
2022/04/29 03:01:59;;;;;;;;;;;;;;;11.33;59.81;100636.44;4394161;32;19970;-91
2022/04/29 03:04:24;;;;;;;;;;;;;;;11.40;59.82;100639.81;4394580;32;20056;-91
2022/04/29 03:06:50;;;;;;;;;;;;;;;11.40;59.82;100642.41;4396316;32;19990;-91
2022/04/29 03:09:15;;;;;;;;;;;;;;;11.24;59.81;100640.13;4383541;32;20331;-91
2022/04/29 03:11:40;;;;;;;;;;;;;;;11.23;59.81;100641.00;4396481;32;20013;-91
2022/04/29 03:14:05;;;;;;;;;;;;;;;11.24;59.81;100640.13;4396377;32;19992;-90
2022/04/29 03:16:31;;;;;;;;;;;;;;;11.40;59.82;100645.03;4396308;32;20023;-92
2022/04/29 03:18:56;;;;;;;;;;;;;;;11.50;59.82;100650.00;4396670;32;20047;-92
2022/04/29 03:21:21;;;;;;;;;;;;;;;11.67;59.83;100644.41;4396496;32;19986;-91
2022/04/29 03:23:47;;;;;;;;;;;;;;;11.60;59.83;100643.72;4396269;32;20414;-91
2022/04/29 03:26:12;;;;;;;;;;;;;;;11.68;59.84;100638.31;4396496;32;19990;-91
2022/04/29 03:28:38;;;;;;;;;;;;;;;11.61;59.84;100637.59;4396419;32;20089;-91
2022/04/29 03:31:04;;;;;;;;;;;;;;;11.66;59.83;100638.34;4396780;32;19974;-91
2022/04/29 03:33:29;;;;;;;;;;;;;;;11.78;59.84;100637.22;4396454;32;20035;-91
2022/04/29 03:35:54;;;;;;;;;;;;;;;11.75;59.83;100641.63;4396374;32;20002;-92
2022/04/29 03:38:20;;;;;;;;;;;;;;;11.73;59.84;100641.66;4396429;32;20009;-90
2022/04/29 03:40:45;;;;;;;;;;;;;;;11.80;59.84;100638.06;4396522;32;19978;-91
2022/04/29 03:43:13;;;;;;;;;;;;;;;11.61;59.83;100636.75;4396015;32;20599;-91
2022/04/29 03:45:39;;;;;;;;;;;;;;;11.72;59.84;100636.50;4396615;32;19986;-90
2022/04/29 03:48:04;;;;;;;;;;;;;;;11.53;59.83;100636.87;4396127;32;20036;-91
2022/04/29 03:50:29;;;;;;;;;;;;;;;11.48;59.82;100640.50;4396029;32;19998;-90
2022/04/29 03:52:55;;;;;;;;;;;;;;;11.64;59.83;100644.50;4395961;32;20108;-90
2022/04/29 03:55:21;;;;;;;;;;;;;;;11.61;59.83;100639.34;4395937;32;19986;-90
2022/04/29 03:57:47;;;;;;;;;;;;;;;11.49;59.82;100644.81;4395906;32;20002;-90
2022/04/29 04:00:13;;;;;;;;;;;;;;;11.65;59.83;100646.22;4395854;32;20009;-91
2022/04/29 04:02:39;;;;;;;;;;;;;;;11.52;59.82;100655.16;4397915;32;19958;-89
2022/04/29 04:05:04;;;;;;;;;;;;;;;11.79;59.84;100653.75;4396356;32;20266;-91
2022/04/29 04:07:29;;;;;;;;;;;;;;;11.77;59.84;100658.97;4385362;32;20046;-95
2022/04/29 04:09:54;;;;;;;;;;;;;;;11.79;59.84;100649.38;4399328;32;20005;-94
2022/04/29 04:12:20;;;;;;;;;;;;;;;11.85;59.85;100651.00;4401660;32;20337;-95
2022/04/29 04:14:45;;;;;;;;;;;;;;;11.98;59.86;100650.69;4403519;32;19986;-94
2022/04/29 04:17:10;;;;;;;;;;;;;;;12.02;59.85;100648.84;4398334;32;19994;-91
2022/04/29 04:19:36;;;;;;;;;;;;;;;12.03;59.85;100649.72;4398064;32;20577;-92
2022/04/29 04:22:01;;;;;;;;;;;;;;;12.05;59.86;100656.59;4398316;32;19998;-91
2022/04/29 04:24:27;;;;;;;;;;;;;;;12.27;59.86;100651.72;4397484;32;20001;-91
2022/04/29 04:26:52;;;;;;;;;;;;;;;12.42;59.87;100658.34;4397525;32;19993;-90
2022/04/29 04:29:17;;;;;;;;;;;;;;;12.45;59.88;100653.87;4395998;32;19988;-91
2022/04/29 04:31:43;;;;;;;;;;;;;;;12.52;59.88;100655.44;4395666;32;19990;-91
2022/04/29 04:36:55;;;;;;;;;;;;;;;13.10;59.91;100655.66;4397659;32;20000;-91
2022/04/29 04:39:20;;;;;;;;;;;;;;;13.26;59.93;100667.44;4395960;32;19997;-89
2022/04/29 04:41:46;;;;;;;;;;;;;;;13.26;59.93;100667.44;4396358;32;19989;-92
2022/04/29 04:44:12;;;;;;;;;;;;;;;13.52;59.94;100671.91;4396008;32;20354;-92
2022/04/29 04:46:38;;;;;;;;;;;;;;;13.72;59.95;100672.19;4395672;32;19993;-92
2022/04/29 04:49:11;;;;;;;;;;;;;;;13.80;59.95;100664.94;4396881;32;20342;-93
2022/04/29 04:51:46;;;;;;;;;;;;;;;14.13;59.97;100667.41;4396814;32;19979;-93
2022/04/29 04:54:14;;;;;;;;;;;;;;;14.38;59.98;100670.94;4397510;32;20014;-93
2022/04/29 04:57:03;;;;;;;;;;;;;;;14.49;59.99;100662.78;4396797;32;20343;-93
2022/04/29 04:59:28;;;;;;;;;;;;;;;14.81;60.00;100658.19;4396759;32;20023;-92
2022/04/29 05:01:57;;;;;;;;;;;;;;;14.97;60.01;100659.38;4396469;32;19982;-92
2022/04/29 05:04:25;;;;;;;;;;;;;;;15.03;60.02;100659.12;4396265;32;19986;-94
2022/04/29 05:07:06;;;;;;;;;;;;;;;;;;;;;
2022/04/29 05:09:59;;;;;;;;;;;;;;;;;;;;;
2022/04/29 05:12:51;;;;;;;;;;;;;;;15.30;60.03;100660.75;4397821;32;19982;-94
2022/04/29 05:15:18;;;;;;;;;;;;;;;15.31;60.04;100661.63;4397513;32;20002;-94
2022/04/29 05:18:15;;;;;;;;;;;;;;;15.33;60.03;100660.63;4396916;32;20012;-94
2022/04/29 05:20:50;;;;;;;;;;;;;;;15.60;60.04;100666.66;4409964;32;19988;-93
2022/04/29 05:26:21;;;;;;;;;;;;;;;15.89;60.06;100667.31;4403505;32;19982;-92
2022/04/29 05:28:46;;;;;;;;;;;;;;;15.78;60.06;100667.72;4394472;32;19982;-91
2022/04/29 05:31:11;;;;;;;;;;;;;;;15.85;60.07;100671.84;4395731;32;20259;-92
2022/04/29 05:33:37;;;;;;;;;;;;;;;15.93;60.07;100663.66;4395237;32;20021;-92
2022/04/29 05:36:03;;;;;;;;;;;;;;;15.95;60.07;100667.94;4395190;32;19982;-91
2022/04/29 05:42:14;;;;;;;;;;;;;;;16.20;60.08;100666.94;4395484;32;20028;-92
2022/04/29 05:44:00;;;;;;;;;;;;;;;16.42;60.09;100659.03;4397195;32;20353;-91
2022/04/29 05:46:25;;;;;;;;;;;;;;;16.47;60.10;100662.31;4395273;32;20398;-92
2022/04/29 05:48:50;;;;;;;;;;;;;;;16.61;60.09;100652.09;4395255;32;19989;-92
2022/04/29 05:51:15;;;;;;;;;;;;;;;16.74;60.11;100655.06;4395238;32;20024;-92
2022/04/29 05:53:41;;;;;;;;;;;;;;;16.59;60.10;100656.56;4395128;32;19986;-92
2022/04/29 05:56:06;;;;;;;;;;;;;;;16.72;60.11;100655.13;4395194;32;20053;-91
2022/04/29 05:58:31;;;;;;;;;;;;;;;16.83;60.11;100663.44;4395261;32;20009;-91
2022/04/29 06:00:58;;;;;;;;;;;;;;;16.84;60.11;100664.28;4394961;32;19985;-92
2022/04/29 06:03:23;;;;;;;;;;;;;;;17.07;60.12;100658.88;4395015;32;20044;-92
2022/04/29 06:05:49;;;;;;;;;;;;;;;17.46;60.16;100669.38;4394338;32;20365;-92
2022/04/29 06:08:14;;;;;;;;;;;;;;;17.48;60.16;100675.41;4394893;32;20018;-92
2022/04/29 06:10:39;;;;;;;;;;;;;;;17.54;60.16;100673.44;4382237;32;20028;-91
2022/04/29 06:13:05;;;;;;;;;;;;;;;17.66;60.16;100678.13;4394464;32;21313;-91
2022/04/29 06:15:31;;;;;;;;;;;;;;;17.98;60.17;100674.87;4394705;32;19982;-90
2022/04/29 06:17:56;;;;;;;;;;;;;;;18.12;60.18;100666.31;4394585;32;20000;-93
2022/04/29 06:20:21;;;;;;;;;;;;;;;18.19;60.19;100675.59;4394699;32;19997;-91
2022/04/29 06:22:46;;;;;;;;;;;;;;;18.32;60.20;100667.97;4382138;32;20342;-92
2022/04/29 06:25:12;;;;;;;;;;;;;;;18.44;60.20;100675.25;4382079;32;20017;-92
2022/04/29 06:27:37;;;;;;;;;;;;;;;18.52;60.20;100672.25;4394495;32;19994;-92
2022/04/29 06:30:02;;;;;;;;;;;;;;;18.62;60.22;100677.00;4394489;32;20384;-92
2022/04/29 06:32:28;;;;;;;;;;;;;;;18.79;60.22;100672.66;4408139;32;20012;-91
2022/04/29 06:34:53;;;;;;;;;;;;;;;18.96;60.23;100665.59;4394793;32;19990;-92
2022/04/29 06:37:20;;;;;;;;;;;;;;;19.09;60.24;100671.06;4394424;32;19986;-90
2022/04/29 06:39:45;;;;;;;;;;;;;;;19.17;60.24;100666.25;4395372;32;19993;-92
2022/04/29 06:42:11;;;;;;;;;;;;;;;19.10;60.23;100662.22;4396394;32;20014;-92
2022/04/29 06:44:36;;;;;;;;;;;;;;;19.38;60.26;100669.50;4396158;32;20044;-92
2022/04/29 06:47:02;;;;;;;;;;;;;;;19.42;60.25;100664.94;4383616;32;20357;-91
2022/04/29 06:49:27;;;;;;;;;;;;;;;19.53;60.27;100667.84;4396455;32;19974;-90
2022/04/29 06:51:52;;;;;;;;;;;;;;;19.83;60.27;100662.69;4396356;32;20020;-92
2022/04/29 06:54:18;;;;;;;;;;;;;;;19.99;60.28;100658.25;4396580;32;20322;-92
2022/04/29 06:56:43;;;;;;;;;;;;;;;20.06;60.28;100661.41;4396377;32;20315;-92
2022/04/29 06:59:08;;;;;;;;;;;;;;;20.07;60.28;100657.81;4383706;32;19993;-92
2022/04/29 07:01:33;;;;;;;;;;;;;;;20.30;60.30;100653.84;4396559;32;19974;-92
2022/04/29 07:03:59;;;;;;;;;;;;;;;20.45;60.30;100656.50;4396439;32;20271;-91
2022/04/29 07:06:24;;;;;;;;;;;;;;;20.33;60.30;100656.31;4396257;32;20068;-90
2022/04/29 07:08:49;;;;;;;;;;;;;;;20.45;60.30;100656.50;4396160;32;19989;-92
2022/04/29 07:11:14;;;;;;;;;;;;;;;20.50;60.31;100656.22;4396171;32;20022;-89
2022/04/29 07:13:42;;;;;;;;;;;;;;;20.59;60.31;100653.06;4395809;32;20287;-89
2022/04/29 07:16:07;;;;;;;;;;;;;;;20.79;60.33;100657.13;4396396;32;19998;-90
2022/04/29 07:18:33;;;;;;;;;;;;;;;20.69;60.32;100664.78;4395954;32;19994;-90
2022/04/29 07:20:58;;;;;;;;;;;;;;;20.65;60.32;100659.78;4396201;32;19974;-91
2022/04/29 07:23:23;;;;;;;;;;;;;;;20.49;60.31;100654.53;4396093;32;20252;-90
2022/04/29 07:25:50;;;;;;;;;;;;;;;20.68;60.32;100663.06;4395924;32;20009;-90
2022/04/29 07:28:15;;;;;;;;;;;;;;;20.52;60.31;100663.13;4396366;32;20319;-91
2022/04/29 07:30:41;;;;;;;;;;;;;;;20.33;60.31;100658.97;4395763;32;19978;-91
2022/04/29 07:33:06;;;;;;;;;;;;;;;20.30;60.30;100654.69;4395926;32;19995;-90
2022/04/29 07:43:44;;;;;;;;;;;;;;;20.62;60.33;100657.31;4398012;32;19996;-91
2022/04/29 07:46:10;;;;;;;;;;;;;;;20.73;60.33;100649.56;4395902;32;19994;-90
2022/04/29 07:48:38;;;;;;;;;;;;;;;20.75;60.33;100656.47;4395996;32;20053;-91
2022/04/29 07:51:03;;;;;;;;;;;;;;;20.86;60.34;100657.63;4395144;32;20349;-91
2022/04/29 07:53:28;;;;;;;;;;;;;;;20.98;60.34;100660.37;4395892;32;20034;-91
2022/04/29 07:55:53;;;;;;;;;;;;;;;20.99;60.34;100658.59;4395867;32;20287;-91
2022/04/29 07:58:19;;;;;;;;;;;;;;;21.12;60.35;100662.19;4395681;32;20073;-91
2022/04/29 08:00:48;;;;;;;;;;;;;;;21.08;60.34;100661.53;4395812;32;20005;-91
2022/04/29 08:03:13;;;;;;;;;;;;;;;21.13;60.35;100655.97;4395968;32;19998;-90
2022/04/29 08:05:38;;;;;;;;;;;;;;;21.24;60.36;100665.91;4395836;32;20038;-91
2022/04/29 08:08:04;;;;;;;;;;;;;;;21.34;60.36;100652.03;4395724;32;19989;-92
2022/04/29 08:10:32;;;;;;;;;;;;;;;21.36;60.36;100659.88;4395720;32;20299;-91
2022/04/29 08:12:58;;;;;;;;;;;;;;;21.27;60.36;100652.47;4383514;32;19994;-91
2022/04/29 08:15:26;;;;;;;;;;;;;;;21.32;60.37;100655.72;4395700;32;20256;-90
2022/04/29 08:17:52;;;;;;;;;;;;;;;21.28;60.36;100648.88;4395293;32;19992;-91
2022/04/29 08:20:20;;;;;;;;;;;;;;;21.50;60.37;100659.00;4395810;32;20338;-90
2022/04/29 08:22:48;;;;;;;;;;;;;;;21.60;60.37;100657.47;4395774;32;19998;-92
2022/04/29 08:25:16;;;;;;;;;;;;;;;21.62;60.38;100664.37;4395837;32;20095;-92
2022/04/29 08:27:50;;;;;;;;;;;;;;;21.69;60.38;100647.13;4396002;32;19974;-91
2022/04/29 08:30:15;;;;;;;;;;;;;;;21.93;60.39;100643.84;4395811;32;20004;-91
2022/04/29 08:32:44;;;;;;;;;;;;;;;21.82;60.39;100643.72;4409317;32;19986;-91
2022/04/29 08:35:12;;;;;;;;;;;;;;;21.85;60.39;100648.81;4395471;32;20013;-90
2022/04/29 08:37:38;;;;;;;;;;;;;;;21.96;60.40;100638.34;4395766;32;19977;-91
2022/04/29 08:40:04;;;;;;;;;;;;;;;22.04;60.40;100642.25;4395605;32;20009;-92
2022/04/29 08:42:29;;;;;;;;;;;;;;;21.91;60.39;100636.00;4395479;32;19993;-91
2022/04/29 08:44:54;;;;;;;;;;;;;;;21.88;60.39;100630.91;4395621;32;20052;-91
2022/04/29 08:47:20;;;;;;;;;;;;;;;21.92;60.39;100637.69;4395345;32;20224;-91
2022/04/29 08:49:46;;;;;;;;;;;;;;;22.18;60.41;100630.72;4395389;32;20000;-91
2022/04/29 08:52:13;;;;;;;;;;;;;;;22.36;60.42;100634.81;4383078;32;20008;-90
2022/04/29 09:00:07;;;;;;;;;;;;;;;22.55;60.44;100620.31;4397546;32;20012;-89
2022/04/29 09:02:39;;;;;;;;;;;;;;;22.70;60.43;100621.03;4395204;32;20006;-89
2022/04/29 09:05:08;;;;;;;;;;;;;;;22.88;60.45;100617.16;4395640;32;19994;-91
2022/04/29 09:07:56;;;;;;;;;;;;;;;22.93;60.46;100615.88;4395485;32;19992;-91
2022/04/29 09:10:21;;;;;;;;;;;;;;;22.99;60.45;100611.13;4395855;32;20375;-91
2022/04/29 09:12:47;;;;;;;;;;;;;;;23.07;60.45;100608.78;4395345;32;20398;-90
2022/04/29 09:15:12;;;;;;;;;;;;;;;22.96;60.46;100607.72;4395480;32;20085;-91
2022/04/29 09:17:40;;;;;;;;;;;;;;;22.74;60.44;100604.84;4395345;32;20012;-90
2022/04/29 09:20:21;;;;;;;;;;;;;;;22.79;60.45;100605.34;4395753;32;19987;-89
2022/04/29 09:22:49;;;;;;;;;;;;;;;22.71;60.43;100609.47;4395102;32;20347;-90
2022/04/29 09:25:14;;;;;;;;;;;;;;;22.82;60.44;100601.66;4395340;32;20576;-90
2022/04/29 09:27:55;;;;;;;;;;;;;;;23.17;60.46;100596.53;4395461;32;19983;-90
2022/04/29 09:30:33;;;;;;;;;;;;;;;23.30;60.47;100592.06;4382642;32;19974;-91
2022/04/29 09:32:59;;;;;;;;;;;;;;;23.34;60.47;100596.19;4395209;32;20005;-89
2022/04/29 09:35:34;;;;;;;;;;;;;;;23.18;60.47;100598.22;4395076;32;19990;-90
2022/04/29 09:40:45;;;;;;;;;;;;;;;22.85;60.45;100597.00;4397385;32;20033;-90
2022/04/29 09:43:10;;;;;;;;;;;;;;;22.58;60.43;100609.47;4395059;32;19990;-90
2022/04/29 09:45:35;;;;;;;;;;;;;;;22.61;60.44;100594.19;4382458;32;19982;-90
2022/04/29 09:48:01;;;;;;;;;;;;;;;22.76;60.44;100594.94;4394834;32;20001;-90
2022/04/29 09:50:46;;;;;;;;;;;;;;;22.65;60.44;100600.97;4394773;32;19998;-90
2022/04/29 09:53:14;;;;;;;;;;;;;;;22.32;60.43;100590.03;4394974;32;20009;-88
2022/04/29 09:55:40;;;;;;;;;;;;;;;22.36;60.42;100595.00;4394911;32;19994;-91
2022/04/29 09:58:08;;;;;;;;;;;;;;;22.18;60.41;100603.34;4408918;32;20381;-89
2022/04/29 10:00:33;;;;;;;;;;;;;;;22.18;60.41;100596.25;4395276;32;20040;-90
2022/04/29 10:03:03;;;;;;;;;;;;;;;22.19;60.42;100584.69;4394808;32;19998;-90
2022/04/29 10:05:29;;;;;;;;;;;;;;;22.20;60.42;100585.53;4395092;32;20050;-90
2022/04/29 10:07:54;;;;;;;;;;;;;;;22.31;60.42;100588.34;4394905;32;19982;-91
2022/04/29 10:10:20;;;;;;;;;;;;;;;22.37;60.42;100582.59;4394887;32;20017;-89
2022/04/29 10:12:47;;;;;;;;;;;;;;;22.48;60.44;100588.03;4394859;32;20380;-89
2022/04/29 10:15:16;;;;;;;;;;;;;;;22.47;60.43;100585.47;4395762;32;20008;-91
2022/04/29 10:23:11;;;;;;;;;;;;;;;22.80;60.45;100583.16;4398754;32;19992;-89
2022/04/29 10:25:40;;;;;;;;;;;;;;;22.94;60.44;100571.59;4396440;32;20096;-90
2022/04/29 10:28:06;;;;;;;;;;;;;;;22.90;60.45;100580.72;4410292;32;19974;-90
2022/04/29 10:30:38;;;;;;;;;;;;;;;23.04;60.46;100571.81;4396293;32;20433;-89
2022/04/29 10:33:07;;;;;;;;;;;;;;;22.90;60.45;100567.47;4410332;32;20037;-89
2022/04/29 10:35:38;;;;;;;;;;;;;;;23.32;60.47;100560.06;4396403;32;20029;-90
2022/04/29 10:38:13;;;;;;;;;;;;;;;23.56;60.48;100564.47;4410100;32;19982;-90
2022/04/29 10:40:38;;;;;;;;;;;;;;;23.92;60.50;100554.75;4396357;32;19982;-89
2022/04/29 10:43:05;;;;;;;;;;;;;;;24.33;60.52;100551.63;4396334;32;20212;-89
2022/04/29 10:45:31;;;;;;;;;;;;;;;24.46;60.53;100559.53;4410214;32;19990;-87
2022/04/29 10:47:56;;;;;;;;;;;;;;;24.01;60.51;100553.22;4396182;32;19974;-88
2022/04/29 10:50:31;;;;;;;;;;;;;;;23.93;60.50;100558.25;4396256;32;19998;-88
2022/04/29 10:52:59;;;;;;;;;;;;;;;23.87;60.50;100548.91;4410115;32;19985;-88
2022/04/29 10:55:25;;;;;;;;;;;;;;;23.66;60.50;100547.84;4396390;32;20385;-87
2022/04/29 10:57:51;;;;;;;;;;;;;;;23.63;60.48;100546.25;4396311;32;19982;-87
2022/04/29 11:00:18;;;;;;;;;;;;;;;23.65;60.50;100541.69;4410058;32;20004;-87
2022/04/29 11:02:44;;;;;;;;;;;;;;;23.64;60.49;100537.31;4383691;32;19995;-88
2022/04/29 11:05:09;;;;;;;;;;;;;;;23.85;60.50;100542.84;4396176;32;20013;-87
2022/04/29 11:07:44;;;;;;;;;;;;;;;23.84;60.50;100534.03;4407666;32;19990;-88
2022/04/29 11:10:19;;;;;;;;;;;;;;;23.72;60.49;100523.50;4410201;32;19978;-87
2022/04/29 11:12:56;;;;;;;;;;;;;;;23.81;60.51;100525.44;4396402;32;19985;-88
2022/04/29 11:15:23;;;;;;;;;;;;;;;23.76;60.50;100532.94;4396176;32;20002;-87
2022/04/29 11:17:48;;;;;;;;;;;;;;;23.74;60.50;100527.72;4396445;32;20051;-89
2022/04/29 11:20:15;;;;;;;;;;;;;;;23.73;60.50;100522.53;4396152;32;20247;-90
2022/04/29 11:25:24;;;;;;;;;;;;;;;23.93;60.51;100529.00;4398548;32;20021;-88
2022/04/29 11:27:50;;;;;;;;;;;;;;;24.06;60.52;100509.34;4396018;32;20239;-87
2022/04/29 11:30:15;;;;;;;;;;;;;;;24.02;60.51;100513.19;4410095;32;20017;-87
2022/04/29 11:32:40;;;;;;;;;;;;;;;24.31;60.53;100502.16;4395993;32;19994;-88
2022/04/29 11:35:06;;;;;;;;;;;;;;;24.35;60.53;100508.94;4409826;32;20247;-88
2022/04/29 11:37:33;;;;;;;;;;;;;;;24.44;60.54;100500.25;4395980;32;20001;-88
2022/04/29 11:40:09;;;;;;;;;;;;;;;24.56;60.54;100496.62;4395927;32;19970;-88
2022/04/29 11:42:34;;;;;;;;;;;;;;;24.63;60.54;100500.53;4396003;32;20006;-88
2022/04/29 11:45:19;;;;;;;;;;;;;;;24.74;60.55;100497.84;4395738;32;19982;-88
2022/04/29 11:47:44;;;;;;;;;;;;;;;24.84;60.56;100489.13;4395858;32;20049;-89
2022/04/29 11:50:09;;;;;;;;;;;;;;;25.11;60.57;100486.12;4409700;32;20307;-88
2022/04/29 11:52:36;;;;;;;;;;;;;;;24.98;60.57;100492.38;4395699;32;20044;-89
2022/04/29 11:55:05;;;;;;;;;;;;;;;24.50;60.54;100497.13;4396120;32;20009;-89
2022/04/29 11:57:31;;;;;;;;;;;;;;;24.11;60.52;100491.22;4395776;32;19962;-89
2022/04/29 11:59:57;;;;;;;;;;;;;;;24.11;60.51;100482.38;4409743;32;19999;-88
2022/04/29 12:02:23;;;;;;;;;;;;;;;24.35;60.53;100480.50;4395701;32;19986;-88
2022/04/29 12:05:14;;;;;;;;;;;;;;;24.43;60.54;100471.97;4395841;32;19998;-88
2022/04/29 12:07:41;;;;;;;;;;;;;;;24.19;60.53;100467.53;4391970;32;20049;-88
2022/04/29 12:10:26;;;;;;;;;;;;;;;24.31;60.53;100468.44;4395710;32;19982;-88
2022/04/29 12:12:55;;;;;;;;;;;;;;;24.16;60.52;100462.47;4396019;32;20335;-88
2022/04/29 12:15:20;;;;;;;;;;;;;;;23.99;60.51;100462.06;4395606;32;19994;-88
2022/04/29 12:17:47;;;;;;;;;;;;;;;24.12;60.52;100465.44;4409479;32;19992;-88
2022/04/29 12:20:17;;;;;;;;;;;;;;;24.14;60.52;100464.41;4395917;32;20621;-88
2022/04/29 12:22:42;;;;;;;;;;;;;;;24.32;60.53;100458.63;4395605;32;20274;-88
2022/04/29 12:25:22;;;;;;;;;;;;;;;24.47;60.54;100465.41;4395635;32;19990;-88
2022/04/29 12:28:06;;;;;;;;;;;;;;;24.49;60.53;100464.34;4395520;32;20027;-88
2022/04/29 12:36:07;;;;;;;;;;;;;;;24.92;60.56;100441.44;4397731;32;20040;-89
2022/04/29 12:38:34;;;;;;;;;;;;;;;25.14;60.57;100443.22;4395226;32;20022;-88
2022/04/29 12:41:10;;;;;;;;;;;;;;;25.44;60.58;100434.53;4395481;32;19987;-88
2022/04/29 12:43:45;;;;;;;;;;;;;;;25.21;60.58;100437.28;4395484;32;20453;-88
2022/04/29 12:46:29;;;;;;;;;;;;;;;24.97;60.57;100436.56;4409374;32;19996;-88
2022/04/29 12:48:55;;;;;;;;;;;;;;;24.99;60.56;100437.31;4395413;32;20716;-88
2022/04/29 12:51:33;;;;;;;;;;;;;;;24.61;60.54;100435.06;4409439;32;19978;-88
2022/04/29 12:53:59;;;;;;;;;;;;;;;24.57;60.54;100429.12;4395537;32;20021;-88
2022/04/29 12:56:25;;;;;;;;;;;;;;;24.52;60.54;100433.13;4395554;32;19994;-88
2022/04/29 12:58:50;;;;;;;;;;;;;;;24.46;60.54;100429.12;4395416;32;19992;-89
2022/04/29 13:01:15;;;;;;;;;;;;;;;24.53;60.54;100422.34;4395513;32;19976;-88
2022/04/29 13:03:41;;;;;;;;;;;;;;;24.44;60.54;100423.94;4394940;32;20299;-88
2022/04/29 13:06:08;;;;;;;;;;;;;;;24.21;60.53;100421.34;4395354;32;19994;-88
2022/04/29 13:08:33;;;;;;;;;;;;;;;24.43;60.53;100422.25;4409237;32;20393;-88
2022/04/29 13:10:58;;;;;;;;;;;;;;;24.34;60.54;100417.63;4395396;32;19986;-88
2022/04/29 13:13:24;;;;;;;;;;;;;;;24.21;60.53;100419.53;4395481;32;20271;-88
2022/04/29 13:15:49;;;;;;;;;;;;;;;24.15;60.52;100409.38;4395177;32;19993;-88
2022/04/29 13:18:15;;;;;;;;;;;;;;;24.21;60.52;100410.72;4395422;32;20288;-88